Stowell, TX (77661)

1:37 PM CDT on September 23, 2014 (GMT -0500)
Burrell Cove | Change Station
CLOSE
Current Station
Personal Weather Station
Location: Beaumont, TX
Elevation: 16 ft
Nearby Weather Stations

Elev 16 ft 29.89 °N, 94.22 °W | Updated 16 seconds ago

Clear
Clear
83.3 °F
Feels Like 84 °F
N
0.0
Wind Variable Wind from East
Gusts 2.0 mph

Today
High -- | Low -- °F
--% Chance of Precip.
Yesterday
High -- | Low -- °F
Precip. -- in
7:06 AM 7:12 PM
Waning Crescent, 0% visible
Pressure 30.12 in
Visibility 10.0 miles
Clouds Clear
Heat Index 84 °F
Dew Point 62 °F
Humidity 49%
Rainfall 0.00 in
Snow Depth Not available.
UV 10 out of 12
Pollen 9.70 out of 12
Ozone Good
PM2.5 Moderate
Flu Activity Not available.
METAR KBMT 231815Z AUTO 04007KT 10SM CLR 27/14 A3012 RMK AO2 T02740135

More Conditions Fewer Conditions

Pressure 30.12 in
Visibility 10.0 miles
Clouds Clear
Heat Index 84 °F
Dew Point 62 °F
Humidity 49%
Rainfall 0.00 in
Snow Depth Not available.
UV 10 out of 12
Pollen 9.70 out of 12
Ozone Good
PM2.5 Moderate
Flu Activity Not available.
METAR KBMT 231815Z AUTO 04007KT 10SM CLR 27/14 A3012 RMK AO2 T02740135

More Conditions Fewer Conditions

10-Day Weather Forecast

Almanac

Astronomy

Sep. 23, 2014 Rise Set
Actual Time 7:06 AM CDT 7:12 PM CDT
Civil Twilight 6:42 AM CDT 7:36 PM CDT
Nautical Twilight 6:14 AM CDT 8:04 PM CDT
Astronomical Twilight 5:46 AM CDT 8:32 PM CDT
Moon 6:32 AM CDT 6:53 PM CDT
Length of Visible Light 12h 53m
Length of Day
12h 06m
Tomorrow will be 1m 48s shorter.
Waning Crescent, 0% of the Moon is Illuminated
Today
Waning Crescent
Sep 24
New
Oct 1
First Quarter
Oct 8
Full
Oct 15
Last Quarter

Today's Extremes

State Highs State Lows

Community

WunderPhotos

Upload Photos

1,755,775 photos uploaded!

Nearby

Air Quality

  Air Quality AQ Index Pollutant
Yesterday Moderate
OZONE
Yesterday Moderate
PM2.5
Current Moderate
PM2.5
Current Good
OZONE
Tuesday Moderate
OZONE
Tuesday Good
PM10
Wednesday Unhealthy for Sensitive Groups
OZONE
Wednesday Good
PM10
Thursday Moderate
OZONE
Thursday Good
PM10
Friday Moderate
OZONE
Friday Good
PM10

Snow Depth

Station Depth Elevation
No new snow has been reported.

Earthquake Activity

City Distance Mag. Time & Date
No recent earthquake activity has been reported nearby.
Minimum magnitude displayed is 2.5.

Coastal Water Temperatures

Place Temperature
Sabine Pass North, TX 82.0 °F
Calcasieu Pass, LA 82.0 °F
Port Arthur, TX 82.0 °F
Rollover Pass, TX 77.0 °F
Galveston Bay (North Jetty), TX 80.1 °F
Galveston Pier TX 82.9 °F

Nearby Weather Stations